PWSweather.com
Personal Weather Stations
Station Observations
KFLPOINC2
Poinciana Kissimmee, Poinciana, FL 34758

Poinciana KissimmeePoinciana, FL 34758

Lat: 28.161417, Lon: -81.477557

Elevation: 88

Station Type: Ambient Weather WS 2080

High Low Average
Temperature 67.6°F19.8°F 50.7°F10.4°F 58.5°F14.7°F
Dew Point 58.0°F14.4°F 44.4°F6.9°F 50.0°F10.0°F
Winds 19.7 mph W31.7 mph W Calm Calm 6.4 mph 10.3 mph
Wind Gusts 32.0 mph51.5 mph 1.6 mph2.6 mph 12.6 mph20.3 mph
Humidity 96% 45% 76%
Pressure 30.16 in1021.30 in 30.16 in1021.30 in -
Precipitation 2.64 in67.10 in - -
Hour Temp Dew Point Humidity Winds Wind Gusts Pressure Precip Precip Rate Daily Precip Total
12:00 AM 52.3°F11.3°C 49.2°F9.6°C 89% 2.2 mph SSE3.5 kmh SSE 3.1 mph5.0 kmh 30.16 in1021.3 mb 0.00 in0.0 mm 0.00 in/hr0.0 mm/hr 0.00 in0.0 mm
12:05 AM 52.5°F11.4°C 49.4°F9.7°C 89% 2.2 mph SE3.5 kmh SE 3.8 mph6.1 kmh 30.16 in1021.3 mb 0.00 in0.0 mm 0.00 in/hr0.0 mm/hr 0.00 in0.0 mm
12:10 AM 52.5°F11.4°C 49.4°F9.7°C 89% 2.2 mph SSE3.5 kmh SSE 3.8 mph6.1 kmh 30.16 in1021.3 mb 0.00 in0.0 mm 0.00 in/hr0.0 mm/hr 0.00 in0.0 mm
12:15 AM 52.5°F11.4°C 49.4°F9.7°C 89% 2.2 mph SSE3.5 kmh SSE 3.8 mph6.1 kmh 30.16 in1021.3 mb 0.00 in0.0 mm 0.00 in/hr0.0 mm/hr 0.00 in0.0 mm
12:20 AM 52.5°F11.4°C 49.4°F9.7°C 89% 3.1 mph SSE5.0 kmh SSE 3.8 mph6.1 kmh 30.16 in1021.3 mb 0.00 in0.0 mm 0.00 in/hr0.0 mm/hr 0.00 in0.0 mm
12:25 AM 52.5°F11.4°C 49.4°F9.7°C 89% 2.2 mph S3.5 kmh S 3.8 mph6.1 kmh 30.16 in1021.3 mb 0.00 in0.0 mm 0.00 in/hr0.0 mm/hr 0.00 in0.0 mm
12:30 AM 52.5°F11.4°C 49.4°F9.7°C 89% 0.7 mph SSE1.1 kmh SSE 3.8 mph6.1 kmh 30.16 in1021.3 mb 0.00 in0.0 mm 0.00 in/hr0.0 mm/hr 0.00 in0.0 mm
12:35 AM 52.7°F11.5°C 49.6°F9.8°C 89% 0.7 mph S1.1 kmh S 3.1 mph5.0 kmh 30.16 in1021.3 mb 0.00 in0.0 mm 0.00 in/hr0.0 mm/hr 0.00 in0.0 mm
12:40 AM 52.7°F11.5°C 49.6°F9.8°C 89% 1.6 mph S2.6 kmh S 3.1 mph5.0 kmh 30.16 in1021.3 mb 0.00 in0.0 mm 0.00 in/hr0.0 mm/hr 0.00 in0.0 mm
12:45 AM 52.7°F11.5°C 49.6°F9.8°C 89% 1.6 mph S2.6 kmh S 3.1 mph5.0 kmh 30.16 in1021.3 mb 0.00 in0.0 mm 0.00 in/hr0.0 mm/hr 0.00 in0.0 mm
12:50 AM 52.5°F11.4°C 49.4°F9.7°C 89% Calm Calm 3.1 mph5.0 kmh 30.16 in1021.3 mb 0.00 in0.0 mm 0.00 in/hr0.0 mm/hr 0.00 in0.0 mm
12:55 AM 52.5°F11.4°C 49.4°F9.7°C 89% Calm Calm 2.2 mph3.5 kmh 30.16 in1021.3 mb 0.00 in0.0 mm 0.00 in/hr0.0 mm/hr 0.00 in0.0 mm
01:00 AM 52.3°F11.3°C 49.2°F9.6°C 89% 0.7 mph S1.1 kmh S 2.2 mph3.5 kmh 30.16 in1021.3 mb 0.00 in0.0 mm 0.00 in/hr0.0 mm/hr 0.00 in0.0 mm
01:05 AM 52.3°F11.3°C 49.2°F9.6°C 89% Calm Calm 2.2 mph3.5 kmh 30.16 in1021.3 mb 0.00 in0.0 mm 0.00 in/hr0.0 mm/hr 0.00 in0.0 mm
01:10 AM 52.3°F11.3°C 49.2°F9.6°C 89% Calm Calm 2.2 mph3.5 kmh 30.16 in1021.3 mb 0.00 in0.0 mm 0.00 in/hr0.0 mm/hr 0.00 in0.0 mm
01:15 AM 52.3°F11.3°C 49.2°F9.6°C 89% Calm Calm 1.6 mph2.6 kmh 30.16 in1021.3 mb 0.00 in0.0 mm 0.00 in/hr0.0 mm/hr 0.00 in0.0 mm
01:20 AM 52.3°F11.3°C 49.2°F9.6°C 89% 0.7 mph S1.1 kmh S 2.2 mph3.5 kmh 30.16 in1021.3 mb 0.00 in0.0 mm 0.00 in/hr0.0 mm/hr 0.00 in0.0 mm
01:25 AM 52.5°F11.4°C 49.7°F9.8°C 90% 0.7 mph SSE1.1 kmh SSE 2.2 mph3.5 kmh 30.16 in1021.3 mb 0.00 in0.0 mm 0.00 in/hr0.0 mm/hr 0.00 in0.0 mm
01:30 AM 52.5°F11.4°C 49.7°F9.8°C 90% 1.6 mph SE2.6 kmh SE 2.2 mph3.5 kmh 30.16 in1021.3 mb 0.00 in0.0 mm 0.00 in/hr0.0 mm/hr 0.00 in0.0 mm
01:35 AM 52.5°F11.4°C 50.0°F10.0°C 91% Calm Calm 2.2 mph3.5 kmh 30.16 in1021.3 mb 0.00 in0.0 mm 0.00 in/hr0.0 mm/hr 0.00 in0.0 mm
01:40 AM 52.5°F11.4°C 50.0°F10.0°C 91% 1.6 mph S2.6 kmh S 3.1 mph5.0 kmh 30.16 in1021.3 mb 0.00 in0.0 mm 0.00 in/hr0.0 mm/hr 0.00 in0.0 mm
01:45 AM 52.7°F11.5°C 50.2°F10.1°C 91% 0.7 mph SSE1.1 kmh SSE 3.1 mph5.0 kmh 30.16 in1021.3 mb 0.00 in0.0 mm 0.00 in/hr0.0 mm/hr 0.00 in0.0 mm
01:50 AM 52.9°F11.6°C 50.6°F10.3°C 92% 0.7 mph SSE1.1 kmh SSE 3.1 mph5.0 kmh 30.16 in1021.3 mb 0.00 in0.0 mm 0.00 in/hr0.0 mm/hr 0.00 in0.0 mm
01:55 AM 52.9°F11.6°C 50.6°F10.3°C 92% 0.7 mph SSE1.1 kmh SSE 3.1 mph5.0 kmh 30.16 in1021.3 mb 0.00 in0.0 mm 0.00 in/hr0.0 mm/hr 0.00 in0.0 mm
02:00 AM 52.9°F11.6°C 50.9°F10.5°C 93% 1.6 mph SSE2.6 kmh SSE 3.1 mph5.0 kmh 30.16 in1021.3 mb 0.00 in0.0 mm 0.00 in/hr0.0 mm/hr 0.00 in0.0 mm
02:05 AM 52.7°F11.5°C 50.7°F10.4°C 93% 2.2 mph SSE3.5 kmh SSE 3.1 mph5.0 kmh 30.16 in1021.3 mb 0.00 in0.0 mm 0.00 in/hr0.0 mm/hr 0.00 in0.0 mm
02:10 AM 52.9°F11.6°C 50.9°F10.5°C 93% 1.6 mph SE2.6 kmh SE 3.1 mph5.0 kmh 30.16 in1021.3 mb 0.00 in0.0 mm 0.00 in/hr0.0 mm/hr 0.00 in0.0 mm
02:15 AM 52.9°F11.6°C 50.9°F10.5°C 93% 2.2 mph SE3.5 kmh SE 3.1 mph5.0 kmh 30.16 in1021.3 mb 0.00 in0.0 mm 0.00 in/hr0.0 mm/hr 0.00 in0.0 mm
02:20 AM 52.9°F11.6°C 51.2°F10.7°C 94% 1.6 mph S2.6 kmh S 3.1 mph5.0 kmh 30.16 in1021.3 mb 0.00 in0.0 mm 0.00 in/hr0.0 mm/hr 0.00 in0.0 mm
02:25 AM 53.2°F11.8°C 51.6°F10.9°C 94% 2.2 mph S3.5 kmh S 4.5 mph7.2 kmh 30.16 in1021.3 mb 0.00 in0.0 mm 0.00 in/hr0.0 mm/hr 0.00 in0.0 mm
02:30 AM 53.4°F11.9°C 51.7°F10.9°C 94% 2.2 mph SSE3.5 kmh SSE 4.5 mph7.2 kmh 30.16 in1021.3 mb 0.00 in0.0 mm 0.00 in/hr0.0 mm/hr 0.00 in0.0 mm
02:35 AM 53.6°F12.0°C 51.9°F11.1°C 94% 3.1 mph SSE5.0 kmh SSE 4.5 mph7.2 kmh 30.16 in1021.3 mb 0.00 in0.0 mm 0.00 in/hr0.0 mm/hr 0.00 in0.0 mm
02:40 AM 54.0°F12.2°C 52.3°F11.3°C 94% 3.1 mph S5.0 kmh S 4.5 mph7.2 kmh 30.16 in1021.3 mb 0.00 in0.0 mm 0.00 in/hr0.0 mm/hr 0.00 in0.0 mm
02:45 AM 54.3°F12.4°C 52.9°F11.6°C 95% 2.2 mph S3.5 kmh S 5.4 mph8.7 kmh 30.16 in1021.3 mb 0.00 in0.0 mm 0.00 in/hr0.0 mm/hr 0.00 in0.0 mm
02:50 AM 54.7°F12.6°C 53.3°F11.8°C 95% 3.1 mph S5.0 kmh S 6.0 mph9.7 kmh 30.16 in1021.3 mb 0.00 in0.0 mm 0.00 in/hr0.0 mm/hr 0.00 in0.0 mm
02:55 AM 54.9°F12.7°C 53.5°F11.9°C 95% 3.8 mph S6.1 kmh S 6.0 mph9.7 kmh 30.16 in1021.3 mb 0.00 in0.0 mm 0.00 in/hr0.0 mm/hr 0.00 in0.0 mm
03:00 AM 54.9°F12.7°C 53.5°F11.9°C 95% 3.1 mph S5.0 kmh S 6.0 mph9.7 kmh 30.16 in1021.3 mb 0.00 in0.0 mm 0.00 in/hr0.0 mm/hr 0.00 in0.0 mm
03:05 AM 54.5°F12.5°C 52.8°F11.6°C 94% 3.1 mph SE5.0 kmh SE 5.4 mph8.7 kmh 30.16 in1021.3 mb 0.00 in0.0 mm 0.00 in/hr0.0 mm/hr 0.00 in0.0 mm
03:10 AM 54.3°F12.4°C 52.6°F11.4°C 94% 3.8 mph SE6.1 kmh SE 6.0 mph9.7 kmh 30.16 in1021.3 mb 0.00 in0.0 mm 0.00 in/hr0.0 mm/hr 0.00 in0.0 mm
03:15 AM 54.1°F12.3°C 52.5°F11.4°C 94% 3.8 mph SE6.1 kmh SE 6.0 mph9.7 kmh 30.16 in1021.3 mb 0.00 in0.0 mm 0.00 in/hr0.0 mm/hr 0.00 in0.0 mm
03:20 AM 54.1°F12.3°C 52.5°F11.4°C 94% 3.1 mph SE5.0 kmh SE 6.0 mph9.7 kmh 30.16 in1021.3 mb 0.00 in0.0 mm 0.00 in/hr0.0 mm/hr 0.00 in0.0 mm
03:25 AM 54.1°F12.3°C 52.5°F11.4°C 94% 3.1 mph SE5.0 kmh SE 5.4 mph8.7 kmh 30.16 in1021.3 mb 0.00 in0.0 mm 0.00 in/hr0.0 mm/hr 0.00 in0.0 mm
03:30 AM 54.1°F12.3°C 52.5°F11.4°C 94% 3.1 mph SE5.0 kmh SE 6.0 mph9.7 kmh 30.16 in1021.3 mb 0.00 in0.0 mm 0.00 in/hr0.0 mm/hr 0.00 in0.0 mm
03:35 AM 54.1°F12.3°C 52.7°F11.5°C 95% 3.1 mph SE5.0 kmh SE 6.0 mph9.7 kmh 30.16 in1021.3 mb 0.00 in0.0 mm 0.00 in/hr0.0 mm/hr 0.00 in0.0 mm
03:40 AM 54.3°F12.4°C 52.9°F11.6°C 95% 3.8 mph SE6.1 kmh SE 5.4 mph8.7 kmh 30.16 in1021.3 mb 0.00 in0.0 mm 0.00 in/hr0.0 mm/hr 0.00 in0.0 mm
03:45 AM 54.3°F12.4°C 52.9°F11.6°C 95% 3.1 mph SE5.0 kmh SE 5.4 mph8.7 kmh 30.16 in1021.3 mb 0.00 in0.0 mm 0.00 in/hr0.0 mm/hr 0.00 in0.0 mm
03:50 AM 54.5°F12.5°C 53.1°F11.7°C 95% 5.4 mph SE8.7 kmh SE 6.0 mph9.7 kmh 30.16 in1021.3 mb 0.00 in0.0 mm 0.00 in/hr0.0 mm/hr 0.00 in0.0 mm
03:55 AM 54.7°F12.6°C 53.6°F12.0°C 96% 5.4 mph SE8.7 kmh SE 6.9 mph11.1 kmh 30.16 in1021.3 mb 0.00 in0.0 mm 0.00 in/hr0.0 mm/hr 0.00 in0.0 mm
04:00 AM 54.9°F12.7°C 53.7°F12.1°C 96% 3.8 mph SE6.1 kmh SE 6.9 mph11.1 kmh 30.16 in1021.3 mb 0.00 in0.0 mm 0.00 in/hr0.0 mm/hr 0.00 in0.0 mm
04:05 AM 54.9°F12.7°C 53.7°F12.1°C 96% 3.8 mph SE6.1 kmh SE 7.6 mph12.2 kmh 30.16 in1021.3 mb 0.00 in0.0 mm 0.00 in/hr0.0 mm/hr 0.00 in0.0 mm
04:10 AM 54.9°F12.7°C 53.7°F12.1°C 96% 3.8 mph SE6.1 kmh SE 7.6 mph12.2 kmh 30.16 in1021.3 mb 0.00 in0.0 mm 0.00 in/hr0.0 mm/hr 0.00 in0.0 mm
04:15 AM 55.0°F12.8°C 53.9°F12.2°C 96% 4.5 mph SE7.2 kmh SE 7.6 mph12.2 kmh 30.16 in1021.3 mb 0.00 in0.0 mm 0.00 in/hr0.0 mm/hr 0.00 in0.0 mm
04:20 AM 55.0°F12.8°C 53.9°F12.2°C 96% 5.4 mph SE8.7 kmh SE 6.9 mph11.1 kmh 30.16 in1021.3 mb 0.00 in0.0 mm 0.00 in/hr0.0 mm/hr 0.00 in0.0 mm
04:25 AM 55.0°F12.8°C 53.9°F12.2°C 96% 4.5 mph SSE7.2 kmh SSE 6.9 mph11.1 kmh 30.16 in1021.3 mb 0.00 in0.0 mm 0.00 in/hr0.0 mm/hr 0.00 in0.0 mm
04:30 AM 55.2°F12.9°C 54.1°F12.3°C 96% 3.8 mph SE6.1 kmh SE 6.9 mph11.1 kmh 30.16 in1021.3 mb 0.00 in0.0 mm 0.00 in/hr0.0 mm/hr 0.00 in0.0 mm
04:35 AM 55.2°F12.9°C 54.1°F12.3°C 96% 3.8 mph SE6.1 kmh SE 6.9 mph11.1 kmh 30.16 in1021.3 mb 0.00 in0.0 mm 0.00 in/hr0.0 mm/hr 0.00 in0.0 mm
04:40 AM 55.4°F13.0°C 54.0°F12.2°C 95% 3.8 mph SE6.1 kmh SE 6.0 mph9.7 kmh 30.16 in1021.3 mb 0.00 in0.0 mm 0.00 in/hr0.0 mm/hr 0.00 in0.0 mm
04:45 AM 55.4°F13.0°C 54.0°F12.2°C 95% 4.5 mph SE7.2 kmh SE 7.6 mph12.2 kmh 30.16 in1021.3 mb 0.00 in0.0 mm 0.00 in/hr0.0 mm/hr 0.00 in0.0 mm
04:50 AM 55.6°F13.1°C 54.2°F12.3°C 95% 4.5 mph SE7.2 kmh SE 7.6 mph12.2 kmh 30.16 in1021.3 mb 0.00 in0.0 mm 0.00 in/hr0.0 mm/hr 0.00 in0.0 mm
04:55 AM 55.6°F13.1°C 53.9°F12.2°C 94% 5.4 mph SE8.7 kmh SE 7.6 mph12.2 kmh 30.16 in1021.3 mb 0.00 in0.0 mm 0.00 in/hr0.0 mm/hr 0.00 in0.0 mm
05:00 AM 55.8°F13.2°C 54.1°F12.3°C 94% 5.4 mph SE8.7 kmh SE 7.6 mph12.2 kmh 30.16 in1021.3 mb 0.00 in0.0 mm 0.00 in/hr0.0 mm/hr 0.00 in0.0 mm
05:05 AM 55.8°F13.2°C 54.1°F12.3°C 94% 3.8 mph SE6.1 kmh SE 7.6 mph12.2 kmh 30.16 in1021.3 mb 0.00 in0.0 mm 0.00 in/hr0.0 mm/hr 0.00 in0.0 mm
05:10 AM 55.9°F13.3°C 54.2°F12.3°C 94% 3.8 mph SE6.1 kmh SE 9.2 mph14.8 kmh 30.16 in1021.3 mb 0.00 in0.0 mm 0.00 in/hr0.0 mm/hr 0.00 in0.0 mm
05:15 AM 55.9°F13.3°C 54.2°F12.3°C 94% 3.1 mph SE5.0 kmh SE 9.2 mph14.8 kmh 30.16 in1021.3 mb 0.00 in0.0 mm 0.00 in/hr0.0 mm/hr 0.00 in0.0 mm
05:20 AM 56.1°F13.4°C 54.4°F12.4°C 94% 3.1 mph SSE5.0 kmh SSE 7.6 mph12.2 kmh 30.16 in1021.3 mb 0.00 in0.0 mm 0.00 in/hr0.0 mm/hr 0.00 in0.0 mm
05:25 AM 56.5°F13.6°C 54.8°F12.7°C 94% 3.8 mph S6.1 kmh S 8.3 mph13.4 kmh 30.16 in1021.3 mb 0.00 in0.0 mm 0.00 in/hr0.0 mm/hr 0.00 in0.0 mm
05:30 AM 56.7°F13.7°C 55.0°F12.8°C 94% 3.1 mph S5.0 kmh S 8.3 mph13.4 kmh 30.16 in1021.3 mb 0.05 in1.3 mm 0.60 in/hr15.2 mm/hr 0.05 in1.3 mm
05:35 AM 56.7°F13.7°C 55.0°F12.8°C 94% 0.7 mph S1.1 kmh S 5.4 mph8.7 kmh 30.16 in1021.3 mb 0.08 in2.0 mm 0.36 in/hr9.1 mm/hr 0.08 in2.0 mm
05:40 AM 56.7°F13.7°C 55.0°F12.8°C 94% 3.1 mph SSW5.0 kmh SSW 5.4 mph8.7 kmh 30.16 in1021.3 mb 0.13 in3.3 mm 0.60 in/hr15.2 mm/hr 0.13 in3.3 mm
05:45 AM 56.5°F13.6°C 54.8°F12.7°C 94% 1.6 mph WSW2.6 kmh WSW 5.4 mph8.7 kmh 30.16 in1021.3 mb 0.15 in3.8 mm 0.24 in/hr6.1 mm/hr 0.15 in3.8 mm
05:50 AM 56.1°F13.4°C 54.4°F12.4°C 94% 1.6 mph WNW2.6 kmh WNW 5.4 mph8.7 kmh 30.16 in1021.3 mb 0.15 in3.8 mm 0.00 in/hr0.0 mm/hr 0.15 in3.8 mm
05:55 AM 56.1°F13.4°C 54.4°F12.4°C 94% 3.1 mph NW5.0 kmh NW 4.5 mph7.2 kmh 30.16 in1021.3 mb 0.15 in3.8 mm 0.00 in/hr0.0 mm/hr 0.15 in3.8 mm
06:00 AM 56.1°F13.4°C 54.4°F12.4°C 94% 2.2 mph SW3.5 kmh SW 4.5 mph7.2 kmh 30.16 in1021.3 mb 0.15 in3.8 mm 0.00 in/hr0.0 mm/hr 0.15 in3.8 mm
06:05 AM 56.5°F13.6°C 55.1°F12.8°C 95% 4.5 mph SSW7.2 kmh SSW 6.9 mph11.1 kmh 30.16 in1021.3 mb 0.15 in3.8 mm 0.00 in/hr0.0 mm/hr 0.15 in3.8 mm
06:10 AM 56.8°F13.8°C 55.7°F13.2°C 96% 4.5 mph S7.2 kmh S 9.2 mph14.8 kmh 30.16 in1021.3 mb 0.17 in4.3 mm 0.24 in/hr6.1 mm/hr 0.17 in4.3 mm
06:15 AM 57.0°F13.9°C 55.9°F13.3°C 96% 3.1 mph SSW5.0 kmh SSW 9.2 mph14.8 kmh 30.16 in1021.3 mb 0.17 in4.3 mm 0.00 in/hr0.0 mm/hr 0.17 in4.3 mm
06:20 AM 57.2°F14.0°C 55.8°F13.2°C 95% 3.1 mph SW5.0 kmh SW 9.2 mph14.8 kmh 30.16 in1021.3 mb 0.17 in4.3 mm 0.00 in/hr0.0 mm/hr 0.17 in4.3 mm
06:25 AM 57.2°F14.0°C 56.1°F13.4°C 96% 2.2 mph WSW3.5 kmh WSW 6.9 mph11.1 kmh 30.16 in1021.3 mb 0.17 in4.3 mm 0.00 in/hr0.0 mm/hr 0.17 in4.3 mm
06:30 AM 57.2°F14.0°C 56.1°F13.4°C 96% 3.1 mph WSW5.0 kmh WSW 6.9 mph11.1 kmh 30.16 in1021.3 mb 0.09 in2.3 mm 0.00 in/hr0.0 mm/hr 0.17 in4.3 mm
06:35 AM 57.2°F14.0°C 56.1°F13.4°C 96% 3.1 mph WSW5.0 kmh WSW 6.9 mph11.1 kmh 30.16 in1021.3 mb 0.07 in1.8 mm 0.00 in/hr0.0 mm/hr 0.17 in4.3 mm
06:40 AM 57.4°F14.1°C 56.3°F13.5°C 96% 1.6 mph SW2.6 kmh SW 6.9 mph11.1 kmh 30.16 in1021.3 mb 0.04 in1.0 mm 0.00 in/hr0.0 mm/hr 0.17 in4.3 mm
06:45 AM 57.4°F14.1°C 56.3°F13.5°C 96% 1.6 mph SW2.6 kmh SW 5.4 mph8.7 kmh 30.16 in1021.3 mb 0.01 in0.3 mm 0.00 in/hr0.0 mm/hr 0.17 in4.3 mm
06:50 AM 57.2°F14.0°C 56.1°F13.4°C 96% Calm Calm 3.1 mph5.0 kmh 30.16 in1021.3 mb 0.01 in0.3 mm 0.00 in/hr0.0 mm/hr 0.17 in4.3 mm
06:55 AM 57.2°F14.0°C 56.1°F13.4°C 96% 1.6 mph SSW2.6 kmh SSW 2.2 mph3.5 kmh 30.16 in1021.3 mb 0.01 in0.3 mm 0.00 in/hr0.0 mm/hr 0.17 in4.3 mm
07:00 AM 57.2°F14.0°C 56.1°F13.4°C 96% 1.6 mph WSW2.6 kmh WSW 3.1 mph5.0 kmh 30.16 in1021.3 mb 0.01 in0.3 mm 0.00 in/hr0.0 mm/hr 0.17 in4.3 mm
07:05 AM 57.2°F14.0°C 56.1°F13.4°C 96% 1.6 mph WSW2.6 kmh WSW 3.1 mph5.0 kmh 30.16 in1021.3 mb 0.00 in0.0 mm 0.00 in/hr0.0 mm/hr 0.17 in4.3 mm
07:10 AM 57.2°F14.0°C 56.1°F13.4°C 96% 1.6 mph SW2.6 kmh SW 3.8 mph6.1 kmh 30.16 in1021.3 mb 0.00 in0.0 mm 0.00 in/hr0.0 mm/hr 0.17 in4.3 mm
07:15 AM 57.4°F14.1°C 56.3°F13.5°C 96% 1.6 mph SW2.6 kmh SW 3.8 mph6.1 kmh 30.16 in1021.3 mb 0.00 in0.0 mm 0.00 in/hr0.0 mm/hr 0.17 in4.3 mm
07:20 AM 57.4°F14.1°C 56.3°F13.5°C 96% 2.2 mph WSW3.5 kmh WSW 4.5 mph7.2 kmh 30.16 in1021.3 mb 0.00 in0.0 mm 0.00 in/hr0.0 mm/hr 0.17 in4.3 mm
07:25 AM 57.6°F14.2°C 56.4°F13.6°C 96% 2.2 mph W3.5 kmh W 5.4 mph8.7 kmh 30.16 in1021.3 mb 0.00 in0.0 mm 0.00 in/hr0.0 mm/hr 0.17 in4.3 mm
07:30 AM 57.7°F14.3°C 56.6°F13.7°C 96% 3.8 mph WSW6.1 kmh WSW 5.4 mph8.7 kmh 30.16 in1021.3 mb 0.00 in0.0 mm 0.00 in/hr0.0 mm/hr 0.17 in4.3 mm
07:35 AM 57.7°F14.3°C 56.6°F13.7°C 96% 2.2 mph WSW3.5 kmh WSW 5.4 mph8.7 kmh 30.16 in1021.3 mb 0.00 in0.0 mm 0.00 in/hr0.0 mm/hr 0.17 in4.3 mm
07:40 AM 57.7°F14.3°C 56.6°F13.7°C 96% 0.7 mph W1.1 kmh W 6.0 mph9.7 kmh 30.16 in1021.3 mb 0.00 in0.0 mm 0.00 in/hr0.0 mm/hr 0.17 in4.3 mm
07:45 AM 57.7°F14.3°C 56.6°F13.7°C 96% 3.8 mph W6.1 kmh W 6.0 mph9.7 kmh 30.16 in1021.3 mb 0.00 in0.0 mm 0.00 in/hr0.0 mm/hr 0.17 in4.3 mm
07:50 AM 57.7°F14.3°C 56.6°F13.7°C 96% 3.8 mph W6.1 kmh W 6.0 mph9.7 kmh 30.16 in1021.3 mb 0.00 in0.0 mm 0.00 in/hr0.0 mm/hr 0.17 in4.3 mm
07:55 AM 57.9°F14.4°C 56.8°F13.8°C 96% 3.1 mph W5.0 kmh W 6.0 mph9.7 kmh 30.16 in1021.3 mb 0.00 in0.0 mm 0.00 in/hr0.0 mm/hr 0.17 in4.3 mm
08:00 AM 57.9°F14.4°C 56.8°F13.8°C 96% 2.2 mph WSW3.5 kmh WSW 6.0 mph9.7 kmh 30.16 in1021.3 mb 0.00 in0.0 mm 0.00 in/hr0.0 mm/hr 0.17 in4.3 mm
08:05 AM 57.9°F14.4°C 56.8°F13.8°C 96% 1.6 mph W2.6 kmh W 4.5 mph7.2 kmh 30.16 in1021.3 mb 0.00 in0.0 mm 0.00 in/hr0.0 mm/hr 0.17 in4.3 mm
08:10 AM 57.9°F14.4°C 56.8°F13.8°C 96% 1.6 mph W2.6 kmh W 4.5 mph7.2 kmh 30.16 in1021.3 mb 0.00 in0.0 mm 0.00 in/hr0.0 mm/hr 0.17 in4.3 mm
08:15 AM 57.9°F14.4°C 56.8°F13.8°C 96% 2.2 mph WSW3.5 kmh WSW 5.4 mph8.7 kmh 30.16 in1021.3 mb 0.00 in0.0 mm 0.00 in/hr0.0 mm/hr 0.17 in4.3 mm
08:20 AM 57.7°F14.3°C 56.6°F13.7°C 96% 2.2 mph WSW3.5 kmh WSW 5.4 mph8.7 kmh 30.16 in1021.3 mb 0.00 in0.0 mm 0.00 in/hr0.0 mm/hr 0.17 in4.3 mm
08:25 AM 57.7°F14.3°C 56.3°F13.5°C 95% 2.2 mph W3.5 kmh W 6.0 mph9.7 kmh 30.16 in1021.3 mb 0.00 in0.0 mm 0.00 in/hr0.0 mm/hr 0.17 in4.3 mm
08:30 AM 57.7°F14.3°C 56.3°F13.5°C 95% 3.8 mph WSW6.1 kmh WSW 6.0 mph9.7 kmh 30.16 in1021.3 mb 0.00 in0.0 mm 0.00 in/hr0.0 mm/hr 0.17 in4.3 mm
08:35 AM 57.9°F14.4°C 56.5°F13.6°C 95% 3.1 mph WSW5.0 kmh WSW 6.0 mph9.7 kmh 30.16 in1021.3 mb 0.00 in0.0 mm 0.00 in/hr0.0 mm/hr 0.17 in4.3 mm
08:40 AM 58.8°F14.9°C 57.4°F14.1°C 95% 3.8 mph W6.1 kmh W 7.6 mph12.2 kmh 30.16 in1021.3 mb 0.00 in0.0 mm 0.00 in/hr0.0 mm/hr 0.17 in4.3 mm
08:45 AM 59.4°F15.2°C 57.6°F14.2°C 94% 6.0 mph W9.7 kmh W 8.3 mph13.4 kmh 30.16 in1021.3 mb 0.00 in0.0 mm 0.00 in/hr0.0 mm/hr 0.17 in4.3 mm
08:50 AM 59.9°F15.5°C 57.9°F14.4°C 93% 3.1 mph WSW5.0 kmh WSW 9.8 mph15.8 kmh 30.16 in1021.3 mb 0.00 in0.0 mm 0.00 in/hr0.0 mm/hr 0.17 in4.3 mm
08:55 AM 60.3°F15.7°C 57.9°F14.4°C 92% 7.6 mph W12.2 kmh W 11.4 mph18.3 kmh 30.16 in1021.3 mb 0.00 in0.0 mm 0.00 in/hr0.0 mm/hr 0.17 in4.3 mm
09:00 AM 60.6°F15.9°C 58.0°F14.4°C 91% 10.7 mph W17.2 kmh W 13.0 mph20.9 kmh 30.16 in1021.3 mb 0.01 in0.3 mm 0.01 in/hr0.3 mm/hr 0.18 in4.6 mm
09:05 AM 61.0°F16.1°C 57.4°F14.1°C 88% 8.3 mph W13.4 kmh W 13.0 mph20.9 kmh 30.16 in1021.3 mb 0.01 in0.3 mm 0.00 in/hr0.0 mm/hr 0.18 in4.6 mm
09:10 AM 61.2°F16.2°C 57.0°F13.9°C 86% 5.4 mph W8.7 kmh W 15.9 mph25.6 kmh 30.16 in1021.3 mb 0.01 in0.3 mm 0.00 in/hr0.0 mm/hr 0.18 in4.6 mm
09:15 AM 61.7°F16.5°C 57.2°F14.0°C 85% 9.2 mph W14.8 kmh W 15.9 mph25.6 kmh 30.16 in1021.3 mb 0.01 in0.3 mm 0.00 in/hr0.0 mm/hr 0.18 in4.6 mm
09:20 AM 62.1°F16.7°C 57.2°F14.0°C 84% 6.9 mph WSW11.1 kmh WSW 13.0 mph20.9 kmh 30.16 in1021.3 mb 0.01 in0.3 mm 0.00 in/hr0.0 mm/hr 0.18 in4.6 mm
09:25 AM 62.2°F16.8°C 57.0°F13.9°C 83% 4.5 mph WSW7.2 kmh WSW 13.0 mph20.9 kmh 30.16 in1021.3 mb 0.01 in0.3 mm 0.00 in/hr0.0 mm/hr 0.18 in4.6 mm
09:30 AM 62.4°F16.9°C 56.9°F13.8°C 82% 6.0 mph W9.7 kmh W 14.5 mph23.3 kmh 30.16 in1021.3 mb 0.01 in0.3 mm 0.00 in/hr0.0 mm/hr 0.18 in4.6 mm
09:35 AM 62.6°F17.0°C 56.0°F13.3°C 79% 10.7 mph WNW17.2 kmh WNW 15.2 mph24.5 kmh 30.16 in1021.3 mb 0.01 in0.3 mm 0.00 in/hr0.0 mm/hr 0.18 in4.6 mm
09:40 AM 62.4°F16.9°C 55.8°F13.2°C 79% 8.3 mph W13.4 kmh W 15.2 mph24.5 kmh 30.16 in1021.3 mb 0.01 in0.3 mm 0.00 in/hr0.0 mm/hr 0.18 in4.6 mm
09:45 AM 62.4°F16.9°C 54.8°F12.7°C 76% 7.6 mph W12.2 kmh W 16.8 mph27.0 kmh 30.16 in1021.3 mb 0.01 in0.3 mm 0.00 in/hr0.0 mm/hr 0.18 in4.6 mm
09:50 AM 62.8°F17.1°C 53.3°F11.8°C 71% 6.0 mph W9.7 kmh W 16.8 mph27.0 kmh 30.16 in1021.3 mb 0.01 in0.3 mm 0.00 in/hr0.0 mm/hr 0.18 in4.6 mm
09:55 AM 63.3°F17.4°C 53.8°F12.1°C 71% 4.5 mph WSW7.2 kmh WSW 14.5 mph23.3 kmh 30.16 in1021.3 mb 0.01 in0.3 mm 0.00 in/hr0.0 mm/hr 0.18 in4.6 mm
10:00 AM 63.7°F17.6°C 53.7°F12.1°C 70% 5.4 mph W8.7 kmh W 10.7 mph17.2 kmh 30.16 in1021.3 mb 0.00 in0.0 mm 0.00 in/hr0.0 mm/hr 0.18 in4.6 mm
10:05 AM 63.7°F17.6°C 52.1°F11.2°C 66% 6.9 mph W11.1 kmh W 15.9 mph25.6 kmh 30.16 in1021.3 mb 0.00 in0.0 mm 0.00 in/hr0.0 mm/hr 0.18 in4.6 mm
10:10 AM 64.0°F17.8°C 52.1°F11.2°C 65% 9.8 mph W15.8 kmh W 15.9 mph25.6 kmh 30.16 in1021.3 mb 0.00 in0.0 mm 0.00 in/hr0.0 mm/hr 0.18 in4.6 mm
10:15 AM 63.7°F17.6°C 50.4°F10.2°C 62% 8.3 mph W13.4 kmh W 17.4 mph28.0 kmh 30.16 in1021.3 mb 0.00 in0.0 mm 0.00 in/hr0.0 mm/hr 0.18 in4.6 mm
10:20 AM 63.7°F17.6°C 50.0°F10.0°C 61% 5.4 mph W8.7 kmh W 18.3 mph29.5 kmh 30.16 in1021.3 mb 0.00 in0.0 mm 0.00 in/hr0.0 mm/hr 0.18 in4.6 mm
10:25 AM 64.0°F17.8°C 50.3°F10.2°C 61% 7.6 mph W12.2 kmh W 18.3 mph29.5 kmh 30.16 in1021.3 mb 0.00 in0.0 mm 0.00 in/hr0.0 mm/hr 0.18 in4.6 mm
10:30 AM 64.2°F17.9°C 50.1°F10.1°C 60% 7.6 mph WNW12.2 kmh WNW 16.8 mph27.0 kmh 30.16 in1021.3 mb 0.00 in0.0 mm 0.00 in/hr0.0 mm/hr 0.18 in4.6 mm
10:35 AM 64.4°F18.0°C 50.2°F10.1°C 60% 6.9 mph NW11.1 kmh NW 16.8 mph27.0 kmh 30.16 in1021.3 mb 0.00 in0.0 mm 0.00 in/hr0.0 mm/hr 0.18 in4.6 mm
10:40 AM 64.6°F18.1°C 49.9°F9.9°C 59% 7.6 mph WNW12.2 kmh WNW 20.6 mph33.2 kmh 30.16 in1021.3 mb 0.00 in0.0 mm 0.00 in/hr0.0 mm/hr 0.18 in4.6 mm
10:45 AM 64.9°F18.3°C 51.2°F10.7°C 61% 4.5 mph W7.2 kmh W 20.6 mph33.2 kmh 30.16 in1021.3 mb 0.00 in0.0 mm 0.00 in/hr0.0 mm/hr 0.18 in4.6 mm
10:50 AM 65.5°F18.6°C 50.3°F10.2°C 58% 7.6 mph WNW12.2 kmh WNW 16.8 mph27.0 kmh 30.16 in1021.3 mb 0.00 in0.0 mm 0.00 in/hr0.0 mm/hr 0.18 in4.6 mm
10:55 AM 65.1°F18.4°C 49.5°F9.7°C 57% 17.4 mph W28.0 kmh W 21.3 mph34.3 kmh 30.16 in1021.3 mb 0.00 in0.0 mm 0.00 in/hr0.0 mm/hr 0.18 in4.6 mm
11:00 AM 65.1°F18.4°C 50.0°F10.0°C 58% 13.6 mph W21.9 kmh W 21.3 mph34.3 kmh 30.16 in1021.3 mb 0.00 in0.0 mm 0.00 in/hr0.0 mm/hr 0.18 in4.6 mm
11:05 AM 65.3°F18.5°C 49.7°F9.8°C 57% 9.8 mph W15.8 kmh W 21.3 mph34.3 kmh 30.16 in1021.3 mb 0.00 in0.0 mm 0.00 in/hr0.0 mm/hr 0.18 in4.6 mm
11:10 AM 65.7°F18.7°C 51.0°F10.6°C 59% 9.2 mph W14.8 kmh W 20.6 mph33.2 kmh 30.16 in1021.3 mb 0.00 in0.0 mm 0.00 in/hr0.0 mm/hr 0.18 in4.6 mm
11:15 AM 66.4°F19.1°C 51.2°F10.7°C 58% 7.6 mph W12.2 kmh W 19.0 mph30.6 kmh 30.16 in1021.3 mb 0.00 in0.0 mm 0.00 in/hr0.0 mm/hr 0.18 in4.6 mm
11:20 AM 66.0°F18.9°C 51.3°F10.7°C 59% 9.2 mph W14.8 kmh W 15.9 mph25.6 kmh 30.16 in1021.3 mb 0.00 in0.0 mm 0.00 in/hr0.0 mm/hr 0.18 in4.6 mm
11:25 AM 65.5°F18.6°C 51.7°F10.9°C 61% 8.3 mph W13.4 kmh W 13.6 mph21.9 kmh 30.16 in1021.3 mb 0.00 in0.0 mm 0.00 in/hr0.0 mm/hr 0.18 in4.6 mm
11:30 AM 65.3°F18.5°C 51.1°F10.6°C 60% 6.0 mph W9.7 kmh W 15.2 mph24.5 kmh 30.16 in1021.3 mb 0.00 in0.0 mm 0.00 in/hr0.0 mm/hr 0.18 in4.6 mm
11:35 AM 64.9°F18.3°C 51.2°F10.7°C 61% 8.3 mph W13.4 kmh W 16.8 mph27.0 kmh 30.16 in1021.3 mb 0.00 in0.0 mm 0.00 in/hr0.0 mm/hr 0.18 in4.6 mm
11:40 AM 64.8°F18.2°C 51.0°F10.6°C 61% 7.6 mph W12.2 kmh W 16.8 mph27.0 kmh 30.16 in1021.3 mb 0.00 in0.0 mm 0.00 in/hr0.0 mm/hr 0.18 in4.6 mm
11:45 AM 65.5°F18.6°C 51.2°F10.7°C 60% 7.6 mph W12.2 kmh W 16.8 mph27.0 kmh 30.16 in1021.3 mb 0.00 in0.0 mm 0.00 in/hr0.0 mm/hr 0.18 in4.6 mm
11:50 AM 65.3°F18.5°C 49.7°F9.8°C 57% 9.8 mph W15.8 kmh W 16.8 mph27.0 kmh 30.16 in1021.3 mb 0.00 in0.0 mm 0.00 in/hr0.0 mm/hr 0.18 in4.6 mm
11:55 AM 65.1°F18.4°C 50.0°F10.0°C 58% 9.2 mph W14.8 kmh W 16.8 mph27.0 kmh 30.16 in1021.3 mb 0.00 in0.0 mm 0.00 in/hr0.0 mm/hr 0.18 in4.6 mm
12:00 PM 65.7°F18.7°C 50.0°F10.0°C 57% 8.3 mph W13.4 kmh W 17.4 mph28.0 kmh 30.16 in1021.3 mb 0.00 in0.0 mm 0.00 in/hr0.0 mm/hr 0.18 in4.6 mm
12:05 PM 66.4°F19.1°C 49.7°F9.8°C 55% 9.2 mph W14.8 kmh W 17.4 mph28.0 kmh 30.16 in1021.3 mb 0.00 in0.0 mm 0.00 in/hr0.0 mm/hr 0.18 in4.6 mm
12:10 PM 66.6°F19.2°C 49.4°F9.7°C 54% 6.9 mph WNW11.1 kmh WNW 19.7 mph31.7 kmh 30.16 in1021.3 mb 0.00 in0.0 mm 0.00 in/hr0.0 mm/hr 0.18 in4.6 mm
12:15 PM 67.5°F19.7°C 49.8°F9.9°C 53% 9.8 mph W15.8 kmh W 19.7 mph31.7 kmh 30.16 in1021.3 mb 0.00 in0.0 mm 0.00 in/hr0.0 mm/hr 0.18 in4.6 mm
12:20 PM 67.5°F19.7°C 49.8°F9.9°C 53% 7.6 mph W12.2 kmh W 19.7 mph31.7 kmh 30.16 in1021.3 mb 0.00 in0.0 mm 0.00 in/hr0.0 mm/hr 0.18 in4.6 mm
12:25 PM 67.6°F19.8°C 48.9°F9.4°C 51% 13.6 mph WNW21.9 kmh WNW 22.8 mph36.7 kmh 30.16 in1021.3 mb 0.00 in0.0 mm 0.00 in/hr0.0 mm/hr 0.18 in4.6 mm
12:30 PM 67.1°F19.5°C 47.9°F8.8°C 50% 15.2 mph W24.5 kmh W 22.8 mph36.7 kmh 30.16 in1021.3 mb 0.00 in0.0 mm 0.00 in/hr0.0 mm/hr 0.18 in4.6 mm
12:35 PM 67.1°F19.5°C 47.9°F8.8°C 50% 13.6 mph W21.9 kmh W 20.6 mph33.2 kmh 30.16 in1021.3 mb 0.00 in0.0 mm 0.00 in/hr0.0 mm/hr 0.18 in4.6 mm
12:40 PM 66.9°F19.4°C 47.7°F8.7°C 50% 13.6 mph W21.9 kmh W 21.3 mph34.3 kmh 30.16 in1021.3 mb 0.00 in0.0 mm 0.00 in/hr0.0 mm/hr 0.18 in4.6 mm
12:45 PM 66.6°F19.2°C 46.8°F8.2°C 49% 9.8 mph W15.8 kmh W 29.8 mph48.0 kmh 30.16 in1021.3 mb 0.00 in0.0 mm 0.00 in/hr0.0 mm/hr 0.18 in4.6 mm
12:50 PM 66.0°F18.9°C 46.3°F7.9°C 49% 12.1 mph W19.5 kmh W 29.8 mph48.0 kmh 30.16 in1021.3 mb 0.00 in0.0 mm 0.00 in/hr0.0 mm/hr 0.18 in4.6 mm
12:55 PM 65.1°F18.4°C 46.0°F7.8°C 50% 11.4 mph W18.3 kmh W 25.1 mph40.4 kmh 30.16 in1021.3 mb 0.00 in0.0 mm 0.00 in/hr0.0 mm/hr 0.18 in4.6 mm
01:00 PM 66.0°F18.9°C 47.4°F8.6°C 51% 11.4 mph W18.3 kmh W 23.5 mph37.8 kmh 30.16 in1021.3 mb 0.00 in0.0 mm 0.00 in/hr0.0 mm/hr 0.18 in4.6 mm
01:05 PM 65.8°F18.8°C 46.7°F8.2°C 50% 13.6 mph WSW21.9 kmh WSW 19.7 mph31.7 kmh 30.16 in1021.3 mb 0.00 in0.0 mm 0.00 in/hr0.0 mm/hr 0.18 in4.6 mm
01:10 PM 66.7°F19.3°C 47.0°F8.3°C 49% 15.2 mph WSW24.5 kmh WSW 21.3 mph34.3 kmh 30.16 in1021.3 mb 0.00 in0.0 mm 0.00 in/hr0.0 mm/hr 0.18 in4.6 mm
01:15 PM 66.7°F19.3°C 45.9°F7.7°C 47% 11.4 mph WSW18.3 kmh WSW 21.3 mph34.3 kmh 30.16 in1021.3 mb 0.00 in0.0 mm 0.00 in/hr0.0 mm/hr 0.18 in4.6 mm
01:20 PM 66.6°F19.2°C 45.2°F7.3°C 46% 17.4 mph WSW28.0 kmh WSW 22.8 mph36.7 kmh 30.16 in1021.3 mb 0.00 in0.0 mm 0.00 in/hr0.0 mm/hr 0.18 in4.6 mm
01:25 PM 66.2°F19.0°C 44.8°F7.1°C 46% 13.6 mph WSW21.9 kmh WSW 28.9 mph46.5 kmh 30.16 in1021.3 mb 0.00 in0.0 mm 0.00 in/hr0.0 mm/hr 0.18 in4.6 mm
01:30 PM 66.6°F19.2°C 45.2°F7.3°C 46% 16.8 mph W27.0 kmh W 28.9 mph46.5 kmh 30.16 in1021.3 mb 0.02 in0.5 mm 0.24 in/hr6.1 mm/hr 0.20 in5.1 mm
01:35 PM 66.4°F19.1°C 44.4°F6.9°C 45% 16.8 mph W27.0 kmh W 28.2 mph45.4 kmh 30.16 in1021.3 mb 0.05 in1.3 mm 0.36 in/hr9.1 mm/hr 0.22 in5.6 mm
01:40 PM 66.6°F19.2°C 45.2°F7.3°C 46% 9.2 mph W14.8 kmh W 28.2 mph45.4 kmh 30.16 in1021.3 mb 0.05 in1.3 mm 0.00 in/hr0.0 mm/hr 0.22 in5.6 mm
01:45 PM 66.2°F19.0°C 44.8°F7.1°C 46% 13.0 mph W20.9 kmh W 26.6 mph42.8 kmh 30.16 in1021.3 mb 0.05 in1.3 mm 0.00 in/hr0.0 mm/hr 0.22 in5.6 mm
01:50 PM 66.0°F18.9°C 45.2°F7.3°C 47% 14.5 mph W23.3 kmh W 26.6 mph42.8 kmh 30.16 in1021.3 mb 0.05 in1.3 mm 0.00 in/hr0.0 mm/hr 0.22 in5.6 mm
01:55 PM 66.4°F19.1°C 45.0°F7.2°C 46% 18.3 mph W29.5 kmh W 26.6 mph42.8 kmh 30.16 in1021.3 mb 0.05 in1.3 mm 0.00 in/hr0.0 mm/hr 0.22 in5.6 mm
02:00 PM 66.4°F19.1°C 45.0°F7.2°C 46% 14.5 mph WSW23.3 kmh WSW 26.6 mph42.8 kmh 30.16 in1021.3 mb 0.05 in1.3 mm 0.00 in/hr0.0 mm/hr 0.22 in5.6 mm
02:05 PM 65.8°F18.8°C 45.1°F7.3°C 47% 10.7 mph WSW17.2 kmh WSW 27.3 mph43.9 kmh 30.16 in1021.3 mb 0.05 in1.3 mm 0.00 in/hr0.0 mm/hr 0.22 in5.6 mm
02:10 PM 65.7°F18.7°C 46.5°F8.1°C 50% 15.2 mph WSW24.5 kmh WSW 27.3 mph43.9 kmh 30.16 in1021.3 mb 0.05 in1.3 mm 0.00 in/hr0.0 mm/hr 0.22 in5.6 mm
02:15 PM 66.2°F19.0°C 46.5°F8.1°C 49% 18.3 mph W29.5 kmh W 32.0 mph51.5 kmh 30.16 in1021.3 mb 0.05 in1.3 mm 0.00 in/hr0.0 mm/hr 0.22 in5.6 mm
02:20 PM 66.0°F18.9°C 45.8°F7.7°C 48% 14.5 mph WSW23.3 kmh WSW 32.0 mph51.5 kmh 30.16 in1021.3 mb 0.05 in1.3 mm 0.00 in/hr0.0 mm/hr 0.22 in5.6 mm
02:25 PM 66.4°F19.1°C 46.1°F7.8°C 48% 17.4 mph WSW28.0 kmh WSW 32.0 mph51.5 kmh 30.16 in1021.3 mb 0.05 in1.3 mm 0.00 in/hr0.0 mm/hr 0.22 in5.6 mm
02:30 PM 66.4°F19.1°C 46.1°F7.8°C 48% 15.2 mph WSW24.5 kmh WSW 24.4 mph39.3 kmh 30.16 in1021.3 mb 0.02 in0.5 mm 0.00 in/hr0.0 mm/hr 0.22 in5.6 mm
02:35 PM 66.4°F19.1°C 46.1°F7.8°C 48% 14.5 mph WSW23.3 kmh WSW 25.1 mph40.4 kmh 30.16 in1021.3 mb 0.00 in0.0 mm 0.00 in/hr0.0 mm/hr 0.22 in5.6 mm
02:40 PM 67.1°F19.5°C 47.9°F8.8°C 50% 8.3 mph WSW13.4 kmh WSW 26.6 mph42.8 kmh 30.16 in1021.3 mb 0.00 in0.0 mm 0.00 in/hr0.0 mm/hr 0.22 in5.6 mm
02:45 PM 67.5°F19.7°C 47.7°F8.7°C 49% 12.1 mph W19.5 kmh W 26.6 mph42.8 kmh 30.16 in1021.3 mb 0.00 in0.0 mm 0.00 in/hr0.0 mm/hr 0.22 in5.6 mm
02:50 PM 66.6°F19.2°C 47.9°F8.8°C 51% 15.2 mph W24.5 kmh W 22.1 mph35.6 kmh 30.16 in1021.3 mb 0.00 in0.0 mm 0.00 in/hr0.0 mm/hr 0.22 in5.6 mm
02:55 PM 66.6°F19.2°C 47.9°F8.8°C 51% 12.1 mph W19.5 kmh W 22.8 mph36.7 kmh 30.16 in1021.3 mb 0.00 in0.0 mm 0.00 in/hr0.0 mm/hr 0.22 in5.6 mm
03:00 PM 66.7°F19.3°C 47.0°F8.3°C 49% 13.6 mph WSW21.9 kmh WSW 22.8 mph36.7 kmh 30.16 in1021.3 mb 0.00 in0.0 mm 0.00 in/hr0.0 mm/hr 0.22 in5.6 mm
03:05 PM 66.6°F19.2°C 47.9°F8.8°C 51% 9.2 mph W14.8 kmh W 22.8 mph36.7 kmh 30.16 in1021.3 mb 0.00 in0.0 mm 0.00 in/hr0.0 mm/hr 0.22 in5.6 mm
03:10 PM 65.5°F18.6°C 47.4°F8.6°C 52% 11.4 mph W18.3 kmh W 29.8 mph48.0 kmh 30.16 in1021.3 mb 0.00 in0.0 mm 0.00 in/hr0.0 mm/hr 0.22 in5.6 mm
03:15 PM 65.3°F18.5°C 47.7°F8.7°C 53% 12.1 mph W19.5 kmh W 29.8 mph48.0 kmh 30.16 in1021.3 mb 0.00 in0.0 mm 0.00 in/hr0.0 mm/hr 0.22 in5.6 mm
03:20 PM 65.7°F18.7°C 47.6°F8.7°C 52% 15.9 mph W25.6 kmh W 24.4 mph39.3 kmh 30.16 in1021.3 mb 0.00 in0.0 mm 0.00 in/hr0.0 mm/hr 0.22 in5.6 mm
03:25 PM 65.1°F18.4°C 47.1°F8.4°C 52% 7.6 mph W12.2 kmh W 24.4 mph39.3 kmh 30.16 in1021.3 mb 0.00 in0.0 mm 0.00 in/hr0.0 mm/hr 0.22 in5.6 mm
03:30 PM 65.7°F18.7°C 47.6°F8.7°C 52% 11.4 mph NW18.3 kmh NW 25.1 mph40.4 kmh 30.16 in1021.3 mb 0.00 in0.0 mm 0.00 in/hr0.0 mm/hr 0.22 in5.6 mm
03:35 PM 64.6°F18.1°C 46.6°F8.1°C 52% 16.8 mph W27.0 kmh W 25.9 mph41.7 kmh 30.16 in1021.3 mb 0.00 in0.0 mm 0.00 in/hr0.0 mm/hr 0.22 in5.6 mm
03:40 PM 64.2°F17.9°C 46.2°F7.9°C 52% 19.7 mph W31.7 kmh W 28.2 mph45.4 kmh 30.16 in1021.3 mb 0.00 in0.0 mm 0.00 in/hr0.0 mm/hr 0.22 in5.6 mm
03:45 PM 64.0°F17.8°C 46.6°F8.1°C 53% 12.1 mph W19.5 kmh W 28.2 mph45.4 kmh 30.16 in1021.3 mb 0.00 in0.0 mm 0.00 in/hr0.0 mm/hr 0.22 in5.6 mm
03:50 PM 64.0°F17.8°C 47.1°F8.4°C 54% 13.6 mph WSW21.9 kmh WSW 28.2 mph45.4 kmh 30.16 in1021.3 mb 0.00 in0.0 mm 0.00 in/hr0.0 mm/hr 0.22 in5.6 mm
03:55 PM 64.2°F17.9°C 46.7°F8.2°C 53% 12.1 mph W19.5 kmh W 30.4 mph48.9 kmh 30.16 in1021.3 mb 0.00 in0.0 mm 0.00 in/hr0.0 mm/hr 0.22 in5.6 mm
04:00 PM 64.0°F17.8°C 46.1°F7.8°C 52% 17.4 mph W28.0 kmh W 30.4 mph48.9 kmh 30.16 in1021.3 mb 0.00 in0.0 mm 0.00 in/hr0.0 mm/hr 0.22 in5.6 mm
04:05 PM 64.0°F17.8°C 46.1°F7.8°C 52% 14.5 mph W23.3 kmh W 25.1 mph40.4 kmh 30.16 in1021.3 mb 0.00 in0.0 mm 0.00 in/hr0.0 mm/hr 0.22 in5.6 mm
04:10 PM 63.5°F17.5°C 45.6°F7.6°C 52% 13.0 mph W20.9 kmh W 25.9 mph41.7 kmh 30.16 in1021.3 mb 0.00 in0.0 mm 0.00 in/hr0.0 mm/hr 0.22 in5.6 mm
04:15 PM 63.1°F17.3°C 45.7°F7.6°C 53% 9.8 mph W15.8 kmh W 25.9 mph41.7 kmh 30.16 in1021.3 mb 0.00 in0.0 mm 0.00 in/hr0.0 mm/hr 0.22 in5.6 mm
04:20 PM 63.3°F17.4°C 45.9°F7.7°C 53% 13.0 mph WSW20.9 kmh WSW 22.8 mph36.7 kmh 30.16 in1021.3 mb 0.00 in0.0 mm 0.00 in/hr0.0 mm/hr 0.22 in5.6 mm
04:25 PM 63.5°F17.5°C 46.1°F7.8°C 53% 15.9 mph WSW25.6 kmh WSW 26.6 mph42.8 kmh 30.16 in1021.3 mb 0.00 in0.0 mm 0.00 in/hr0.0 mm/hr 0.22 in5.6 mm
04:30 PM 63.3°F17.4°C 45.9°F7.7°C 53% 15.2 mph WSW24.5 kmh WSW 28.2 mph45.4 kmh 30.16 in1021.3 mb 0.00 in0.0 mm 0.00 in/hr0.0 mm/hr 0.22 in5.6 mm
04:35 PM 63.1°F17.3°C 45.2°F7.3°C 52% 16.8 mph W27.0 kmh W 28.2 mph45.4 kmh 30.16 in1021.3 mb 0.00 in0.0 mm 0.00 in/hr0.0 mm/hr 0.22 in5.6 mm
04:40 PM 63.1°F17.3°C 45.2°F7.3°C 52% 15.9 mph W25.6 kmh W 22.1 mph35.6 kmh 30.16 in1021.3 mb 0.00 in0.0 mm 0.00 in/hr0.0 mm/hr 0.22 in5.6 mm
04:45 PM 63.1°F17.3°C 45.7°F7.6°C 53% 11.4 mph W18.3 kmh W 21.3 mph34.3 kmh 30.16 in1021.3 mb 0.00 in0.0 mm 0.00 in/hr0.0 mm/hr 0.22 in5.6 mm
04:50 PM 63.5°F17.5°C 46.1°F7.8°C 53% 9.2 mph W14.8 kmh W 21.3 mph34.3 kmh 30.16 in1021.3 mb 0.00 in0.0 mm 0.00 in/hr0.0 mm/hr 0.22 in5.6 mm
04:55 PM 63.3°F17.4°C 46.4°F8.0°C 54% 14.5 mph WSW23.3 kmh WSW 16.8 mph27.0 kmh 30.16 in1021.3 mb 0.00 in0.0 mm 0.00 in/hr0.0 mm/hr 0.22 in5.6 mm
05:00 PM 62.6°F17.0°C 45.2°F7.3°C 53% 13.0 mph W20.9 kmh W 23.5 mph37.8 kmh 30.16 in1021.3 mb 0.00 in0.0 mm 0.00 in/hr0.0 mm/hr 0.22 in5.6 mm
05:05 PM 61.9°F16.6°C 45.1°F7.3°C 54% 13.6 mph WSW21.9 kmh WSW 23.5 mph37.8 kmh 30.16 in1021.3 mb 0.00 in0.0 mm 0.00 in/hr0.0 mm/hr 0.22 in5.6 mm
05:10 PM 61.7°F16.5°C 45.9°F7.7°C 56% 13.6 mph W21.9 kmh W 22.8 mph36.7 kmh 30.16 in1021.3 mb 0.00 in0.0 mm 0.00 in/hr0.0 mm/hr 0.22 in5.6 mm
05:15 PM 61.3°F16.3°C 45.0°F7.2°C 55% 13.0 mph W20.9 kmh W 19.7 mph31.7 kmh 30.16 in1021.3 mb 0.00 in0.0 mm 0.00 in/hr0.0 mm/hr 0.22 in5.6 mm
05:20 PM 61.2°F16.2°C 45.4°F7.4°C 56% 12.1 mph W19.5 kmh W 21.3 mph34.3 kmh 30.16 in1021.3 mb 0.00 in0.0 mm 0.00 in/hr0.0 mm/hr 0.22 in5.6 mm
05:25 PM 61.0°F16.1°C 45.7°F7.6°C 57% 15.9 mph W25.6 kmh W 21.3 mph34.3 kmh 30.16 in1021.3 mb 0.00 in0.0 mm 0.00 in/hr0.0 mm/hr 0.22 in5.6 mm
05:30 PM 60.6°F15.9°C 45.8°F7.7°C 58% 16.8 mph WSW27.0 kmh WSW 25.9 mph41.7 kmh 30.16 in1021.3 mb 0.00 in0.0 mm 0.00 in/hr0.0 mm/hr 0.22 in5.6 mm
05:35 PM 60.3°F15.7°C 45.9°F7.7°C 59% 12.1 mph W19.5 kmh W 25.9 mph41.7 kmh 30.16 in1021.3 mb 0.00 in0.0 mm 0.00 in/hr0.0 mm/hr 0.22 in5.6 mm
05:40 PM 60.3°F15.7°C 46.3°F7.9°C 60% 15.9 mph WNW25.6 kmh WNW 25.9 mph41.7 kmh 30.16 in1021.3 mb 0.00 in0.0 mm 0.00 in/hr0.0 mm/hr 0.22 in5.6 mm
05:45 PM 59.9°F15.5°C 46.0°F7.8°C 60% 13.0 mph WNW20.9 kmh WNW 25.9 mph41.7 kmh 30.16 in1021.3 mb 0.00 in0.0 mm 0.00 in/hr0.0 mm/hr 0.22 in5.6 mm
05:50 PM 59.7°F15.4°C 45.8°F7.7°C 60% 9.2 mph W14.8 kmh W 25.9 mph41.7 kmh 30.16 in1021.3 mb 0.00 in0.0 mm 0.00 in/hr0.0 mm/hr 0.22 in5.6 mm
05:55 PM 59.5°F15.3°C 46.1°F7.8°C 61% 8.3 mph W13.4 kmh W 21.3 mph34.3 kmh 30.16 in1021.3 mb 0.00 in0.0 mm 0.00 in/hr0.0 mm/hr 0.22 in5.6 mm
06:00 PM 59.4°F15.2°C 46.4°F8.0°C 62% 9.2 mph W14.8 kmh W 19.7 mph31.7 kmh 30.16 in1021.3 mb 0.00 in0.0 mm 0.00 in/hr0.0 mm/hr 0.22 in5.6 mm
06:05 PM 59.2°F15.1°C 46.2°F7.9°C 62% 9.8 mph W15.8 kmh W 19.7 mph31.7 kmh 30.16 in1021.3 mb 0.00 in0.0 mm 0.00 in/hr0.0 mm/hr 0.22 in5.6 mm
06:10 PM 59.0°F15.0°C 46.0°F7.8°C 62% 9.8 mph W15.8 kmh W 17.4 mph28.0 kmh 30.16 in1021.3 mb 0.00 in0.0 mm 0.00 in/hr0.0 mm/hr 0.22 in5.6 mm
06:15 PM 58.8°F14.9°C 46.7°F8.2°C 64% 6.0 mph W9.7 kmh W 16.8 mph27.0 kmh 30.16 in1021.3 mb 0.00 in0.0 mm 0.00 in/hr0.0 mm/hr 0.22 in5.6 mm
06:20 PM 58.5°F14.7°C 46.3°F7.9°C 64% 8.3 mph W13.4 kmh W 13.6 mph21.9 kmh 30.16 in1021.3 mb 0.00 in0.0 mm 0.00 in/hr0.0 mm/hr 0.22 in5.6 mm
06:25 PM 58.5°F14.7°C 46.3°F7.9°C 64% 9.2 mph W14.8 kmh W 15.9 mph25.6 kmh 30.16 in1021.3 mb 0.00 in0.0 mm 0.00 in/hr0.0 mm/hr 0.22 in5.6 mm
06:30 PM 58.5°F14.7°C 46.8°F8.2°C 65% 7.6 mph W12.2 kmh W 15.9 mph25.6 kmh 30.16 in1021.3 mb 0.00 in0.0 mm 0.00 in/hr0.0 mm/hr 0.22 in5.6 mm
06:35 PM 58.1°F14.5°C 46.4°F8.0°C 65% 6.0 mph WSW9.7 kmh WSW 13.6 mph21.9 kmh 30.16 in1021.3 mb 0.00 in0.0 mm 0.00 in/hr0.0 mm/hr 0.22 in5.6 mm
06:40 PM 57.9°F14.4°C 46.6°F8.1°C 66% 5.4 mph W8.7 kmh W 12.1 mph19.5 kmh 30.16 in1021.3 mb 0.00 in0.0 mm 0.00 in/hr0.0 mm/hr 0.22 in5.6 mm
06:45 PM 57.7°F14.3°C 46.5°F8.1°C 66% 4.5 mph W7.2 kmh W 12.1 mph19.5 kmh 30.16 in1021.3 mb 0.00 in0.0 mm 0.00 in/hr0.0 mm/hr 0.22 in5.6 mm
06:50 PM 57.7°F14.3°C 46.9°F8.3°C 67% 4.5 mph W7.2 kmh W 16.8 mph27.0 kmh 30.16 in1021.3 mb 0.00 in0.0 mm 0.00 in/hr0.0 mm/hr 0.22 in5.6 mm
06:55 PM 57.4°F14.1°C 46.9°F8.3°C 68% 6.9 mph W11.1 kmh W 16.8 mph27.0 kmh 30.16 in1021.3 mb 0.00 in0.0 mm 0.00 in/hr0.0 mm/hr 0.22 in5.6 mm
07:00 PM 57.2°F14.0°C 47.1°F8.4°C 69% 5.4 mph W8.7 kmh W 10.7 mph17.2 kmh 30.16 in1021.3 mb 0.00 in0.0 mm 0.00 in/hr0.0 mm/hr 0.22 in5.6 mm
07:05 PM 57.0°F13.9°C 47.3°F8.5°C 70% 3.8 mph WSW6.1 kmh WSW 9.8 mph15.8 kmh 30.16 in1021.3 mb 0.00 in0.0 mm 0.00 in/hr0.0 mm/hr 0.22 in5.6 mm
07:10 PM 56.7°F13.7°C 47.4°F8.6°C 71% 8.3 mph WSW13.4 kmh WSW 10.7 mph17.2 kmh 30.16 in1021.3 mb 0.00 in0.0 mm 0.00 in/hr0.0 mm/hr 0.22 in5.6 mm
07:15 PM 56.5°F13.6°C 47.6°F8.7°C 72% 6.0 mph WSW9.7 kmh WSW 10.7 mph17.2 kmh 30.16 in1021.3 mb 0.00 in0.0 mm 0.00 in/hr0.0 mm/hr 0.22 in5.6 mm
07:20 PM 56.5°F13.6°C 47.9°F8.8°C 73% 7.6 mph W12.2 kmh W 14.5 mph23.3 kmh 30.16 in1021.3 mb 0.00 in0.0 mm 0.00 in/hr0.0 mm/hr 0.22 in5.6 mm
07:25 PM 56.5°F13.6°C 47.9°F8.8°C 73% 8.3 mph W13.4 kmh W 14.5 mph23.3 kmh 30.16 in1021.3 mb 0.00 in0.0 mm 0.00 in/hr0.0 mm/hr 0.22 in5.6 mm
07:30 PM 56.5°F13.6°C 47.6°F8.7°C 72% 4.5 mph WSW7.2 kmh WSW 13.6 mph21.9 kmh 30.16 in1021.3 mb 0.00 in0.0 mm 0.00 in/hr0.0 mm/hr 0.22 in5.6 mm
07:35 PM 56.3°F13.5°C 47.4°F8.6°C 72% 4.5 mph WSW7.2 kmh WSW 13.6 mph21.9 kmh 30.16 in1021.3 mb 0.00 in0.0 mm 0.00 in/hr0.0 mm/hr 0.22 in5.6 mm
07:40 PM 56.1°F13.4°C 47.6°F8.7°C 73% 7.6 mph WSW12.2 kmh WSW 11.4 mph18.3 kmh 30.16 in1021.3 mb 0.00 in0.0 mm 0.00 in/hr0.0 mm/hr 0.22 in5.6 mm
07:45 PM 56.1°F13.4°C 47.6°F8.7°C 73% 10.7 mph WSW17.2 kmh WSW 12.1 mph19.5 kmh 30.16 in1021.3 mb 0.00 in0.0 mm 0.00 in/hr0.0 mm/hr 0.22 in5.6 mm
07:50 PM 55.9°F13.3°C 47.4°F8.6°C 73% 8.3 mph WSW13.4 kmh WSW 12.1 mph19.5 kmh 30.16 in1021.3 mb 0.00 in0.0 mm 0.00 in/hr0.0 mm/hr 0.22 in5.6 mm
07:55 PM 55.9°F13.3°C 47.8°F8.8°C 74% 4.5 mph W7.2 kmh W 13.6 mph21.9 kmh 30.16 in1021.3 mb 0.00 in0.0 mm 0.00 in/hr0.0 mm/hr 0.22 in5.6 mm
08:00 PM 55.8°F13.2°C 47.6°F8.7°C 74% 5.4 mph W8.7 kmh W 13.6 mph21.9 kmh 30.16 in1021.3 mb 0.00 in0.0 mm 0.00 in/hr0.0 mm/hr 0.22 in5.6 mm
08:05 PM 55.4°F13.0°C 47.3°F8.5°C 74% 4.5 mph WSW7.2 kmh WSW 9.8 mph15.8 kmh 30.16 in1021.3 mb 0.00 in0.0 mm 0.00 in/hr0.0 mm/hr 0.22 in5.6 mm
08:10 PM 55.2°F12.9°C 47.4°F8.6°C 75% 3.8 mph WSW6.1 kmh WSW 9.2 mph14.8 kmh 30.16 in1021.3 mb 0.00 in0.0 mm 0.00 in/hr0.0 mm/hr 0.22 in5.6 mm
08:15 PM 55.0°F12.8°C 47.3°F8.5°C 75% 3.8 mph W6.1 kmh W 9.2 mph14.8 kmh 30.16 in1021.3 mb 0.00 in0.0 mm 0.00 in/hr0.0 mm/hr 0.22 in5.6 mm
08:20 PM 54.9°F12.7°C 47.4°F8.6°C 76% 3.1 mph W5.0 kmh W 8.3 mph13.4 kmh 30.16 in1021.3 mb 0.00 in0.0 mm 0.00 in/hr0.0 mm/hr 0.22 in5.6 mm
08:25 PM 54.9°F12.7°C 47.4°F8.6°C 76% 4.5 mph WSW7.2 kmh WSW 8.3 mph13.4 kmh 30.16 in1021.3 mb 0.00 in0.0 mm 0.00 in/hr0.0 mm/hr 0.22 in5.6 mm
08:30 PM 54.5°F12.5°C 47.4°F8.6°C 77% 4.5 mph WSW7.2 kmh WSW 8.3 mph13.4 kmh 30.16 in1021.3 mb 0.00 in0.0 mm 0.00 in/hr0.0 mm/hr 0.22 in5.6 mm
08:35 PM 54.3°F12.4°C 47.3°F8.5°C 77% 3.1 mph WSW5.0 kmh WSW 6.9 mph11.1 kmh 30.16 in1021.3 mb 0.00 in0.0 mm 0.00 in/hr0.0 mm/hr 0.22 in5.6 mm
08:40 PM 54.1°F12.3°C 47.4°F8.6°C 78% 3.1 mph W5.0 kmh W 6.0 mph9.7 kmh 30.16 in1021.3 mb 0.00 in0.0 mm 0.00 in/hr0.0 mm/hr 0.22 in5.6 mm
08:45 PM 54.1°F12.3°C 47.4°F8.6°C 78% 3.1 mph W5.0 kmh W 7.6 mph12.2 kmh 30.16 in1021.3 mb 0.00 in0.0 mm 0.00 in/hr0.0 mm/hr 0.22 in5.6 mm
08:50 PM 54.1°F12.3°C 47.4°F8.6°C 78% 3.8 mph WSW6.1 kmh WSW 7.6 mph12.2 kmh 30.16 in1021.3 mb 0.00 in0.0 mm 0.00 in/hr0.0 mm/hr 0.22 in5.6 mm
08:55 PM 54.0°F12.2°C 47.3°F8.5°C 78% 3.8 mph WSW6.1 kmh WSW 7.6 mph12.2 kmh 30.16 in1021.3 mb 0.00 in0.0 mm 0.00 in/hr0.0 mm/hr 0.22 in5.6 mm
09:00 PM 53.6°F12.0°C 46.9°F8.3°C 78% 3.1 mph W5.0 kmh W 6.0 mph9.7 kmh 30.16 in1021.3 mb 0.00 in0.0 mm 0.00 in/hr0.0 mm/hr 0.22 in5.6 mm
09:05 PM 53.4°F11.9°C 47.4°F8.6°C 80% 2.2 mph W3.5 kmh W 5.4 mph8.7 kmh 30.16 in1021.3 mb 0.00 in0.0 mm 0.00 in/hr0.0 mm/hr 0.22 in5.6 mm
09:10 PM 53.2°F11.8°C 47.2°F8.4°C 80% 3.1 mph W5.0 kmh W 6.9 mph11.1 kmh 30.16 in1021.3 mb 0.00 in0.0 mm 0.00 in/hr0.0 mm/hr 0.22 in5.6 mm
09:15 PM 53.1°F11.7°C 47.1°F8.4°C 80% 3.1 mph W5.0 kmh W 6.9 mph11.1 kmh 30.16 in1021.3 mb 0.00 in0.0 mm 0.00 in/hr0.0 mm/hr 0.22 in5.6 mm
09:20 PM 53.1°F11.7°C 47.4°F8.6°C 81% 3.1 mph W5.0 kmh W 8.3 mph13.4 kmh 30.16 in1021.3 mb 0.00 in0.0 mm 0.00 in/hr0.0 mm/hr 0.22 in5.6 mm
09:25 PM 53.1°F11.7°C 47.4°F8.6°C 81% 3.1 mph W5.0 kmh W 8.3 mph13.4 kmh 30.16 in1021.3 mb 0.00 in0.0 mm 0.00 in/hr0.0 mm/hr 0.22 in5.6 mm
09:30 PM 52.9°F11.6°C 47.2°F8.4°C 81% 2.2 mph WSW3.5 kmh WSW 7.6 mph12.2 kmh 30.16 in1021.3 mb 0.00 in0.0 mm 0.00 in/hr0.0 mm/hr 0.22 in5.6 mm
09:35 PM 52.7°F11.5°C 47.0°F8.3°C 81% 2.2 mph WSW3.5 kmh WSW 6.0 mph9.7 kmh 30.16 in1021.3 mb 0.00 in0.0 mm 0.00 in/hr0.0 mm/hr 0.22 in5.6 mm
09:40 PM 52.5°F11.4°C 46.9°F8.3°C 81% 2.2 mph W3.5 kmh W 4.5 mph7.2 kmh 30.16 in1021.3 mb 0.00 in0.0 mm 0.00 in/hr0.0 mm/hr 0.22 in5.6 mm
09:45 PM 52.3°F11.3°C 47.0°F8.3°C 82% 1.6 mph W2.6 kmh W 4.5 mph7.2 kmh 30.16 in1021.3 mb 0.00 in0.0 mm 0.00 in/hr0.0 mm/hr 0.22 in5.6 mm
09:50 PM 52.2°F11.2°C 46.8°F8.2°C 82% 0.7 mph W1.1 kmh W 4.5 mph7.2 kmh 30.16 in1021.3 mb 0.00 in0.0 mm 0.00 in/hr0.0 mm/hr 0.22 in5.6 mm
09:55 PM 52.0°F11.1°C 46.7°F8.2°C 82% 0.7 mph W1.1 kmh W 4.5 mph7.2 kmh 30.16 in1021.3 mb 0.00 in0.0 mm 0.00 in/hr0.0 mm/hr 0.22 in5.6 mm
10:00 PM 51.8°F11.0°C 46.5°F8.1°C 82% 1.6 mph W2.6 kmh W 4.5 mph7.2 kmh 30.16 in1021.3 mb 0.00 in0.0 mm 0.00 in/hr0.0 mm/hr 0.22 in5.6 mm
10:05 PM 51.8°F11.0°C 46.8°F8.2°C 83% 1.6 mph W2.6 kmh W 4.5 mph7.2 kmh 30.16 in1021.3 mb 0.00 in0.0 mm 0.00 in/hr0.0 mm/hr 0.22 in5.6 mm
10:10 PM 51.6°F10.9°C 46.9°F8.3°C 84% 3.1 mph W5.0 kmh W 5.4 mph8.7 kmh 30.16 in1021.3 mb 0.00 in0.0 mm 0.00 in/hr0.0 mm/hr 0.22 in5.6 mm
10:15 PM 51.6°F10.9°C 47.3°F8.5°C 85% 1.6 mph W2.6 kmh W 5.4 mph8.7 kmh 30.16 in1021.3 mb 0.00 in0.0 mm 0.00 in/hr0.0 mm/hr 0.22 in5.6 mm
10:20 PM 51.6°F10.9°C 47.3°F8.5°C 85% 2.2 mph W3.5 kmh W 6.0 mph9.7 kmh 30.16 in1021.3 mb 0.00 in0.0 mm 0.00 in/hr0.0 mm/hr 0.22 in5.6 mm
10:25 PM 51.6°F10.9°C 47.3°F8.5°C 85% 3.1 mph W5.0 kmh W 6.0 mph9.7 kmh 30.16 in1021.3 mb 0.00 in0.0 mm 0.00 in/hr0.0 mm/hr 0.22 in5.6 mm
10:30 PM 51.6°F10.9°C 47.3°F8.5°C 85% 3.8 mph W6.1 kmh W 6.0 mph9.7 kmh 30.16 in1021.3 mb 0.00 in0.0 mm 0.00 in/hr0.0 mm/hr 0.22 in5.6 mm
10:35 PM 51.8°F11.0°C 47.4°F8.6°C 85% 3.1 mph W5.0 kmh W 8.3 mph13.4 kmh 30.16 in1021.3 mb 0.00 in0.0 mm 0.00 in/hr0.0 mm/hr 0.22 in5.6 mm
10:40 PM 52.0°F11.1°C 47.6°F8.7°C 85% 4.5 mph WSW7.2 kmh WSW 8.3 mph13.4 kmh 30.16 in1021.3 mb 0.00 in0.0 mm 0.00 in/hr0.0 mm/hr 0.22 in5.6 mm
10:45 PM 52.0°F11.1°C 47.6°F8.7°C 85% 3.8 mph WSW6.1 kmh WSW 8.3 mph13.4 kmh 30.16 in1021.3 mb 0.00 in0.0 mm 0.00 in/hr0.0 mm/hr 0.22 in5.6 mm
10:50 PM 52.0°F11.1°C 47.3°F8.5°C 84% 6.0 mph W9.7 kmh W 7.6 mph12.2 kmh 30.16 in1021.3 mb 0.00 in0.0 mm 0.00 in/hr0.0 mm/hr 0.22 in5.6 mm
10:55 PM 52.0°F11.1°C 47.3°F8.5°C 84% 2.2 mph W3.5 kmh W 7.6 mph12.2 kmh 30.16 in1021.3 mb 0.00 in0.0 mm 0.00 in/hr0.0 mm/hr 0.22 in5.6 mm
11:00 PM 51.8°F11.0°C 47.1°F8.4°C 84% 3.1 mph WSW5.0 kmh WSW 7.6 mph12.2 kmh 30.16 in1021.3 mb 0.00 in0.0 mm 0.00 in/hr0.0 mm/hr 0.22 in5.6 mm
11:05 PM 51.6°F10.9°C 47.3°F8.5°C 85% 3.8 mph WSW6.1 kmh WSW 6.0 mph9.7 kmh 30.16 in1021.3 mb 0.00 in0.0 mm 0.00 in/hr0.0 mm/hr 0.22 in5.6 mm
11:10 PM 51.6°F10.9°C 47.3°F8.5°C 85% 3.1 mph W5.0 kmh W 5.4 mph8.7 kmh 30.16 in1021.3 mb 0.00 in0.0 mm 0.00 in/hr0.0 mm/hr 0.22 in5.6 mm
11:15 PM 51.4°F10.8°C 47.1°F8.4°C 85% 1.6 mph WSW2.6 kmh WSW 5.4 mph8.7 kmh 30.16 in1021.3 mb 0.00 in0.0 mm 0.00 in/hr0.0 mm/hr 0.22 in5.6 mm
11:20 PM 51.3°F10.7°C 46.9°F8.3°C 85% 3.1 mph WSW5.0 kmh WSW 6.0 mph9.7 kmh 30.16 in1021.3 mb 0.00 in0.0 mm 0.00 in/hr0.0 mm/hr 0.22 in5.6 mm
11:25 PM 51.3°F10.7°C 46.9°F8.3°C 85% 3.1 mph WSW5.0 kmh WSW 6.0 mph9.7 kmh 30.16 in1021.3 mb 0.00 in0.0 mm 0.00 in/hr0.0 mm/hr 0.22 in5.6 mm
11:30 PM 51.1°F10.6°C 46.7°F8.2°C 85% 2.2 mph WSW3.5 kmh WSW 6.0 mph9.7 kmh 30.16 in1021.3 mb 0.00 in0.0 mm 0.00 in/hr0.0 mm/hr 0.22 in5.6 mm
11:35 PM 50.9°F10.5°C 46.6°F8.1°C 85% 3.1 mph WSW5.0 kmh WSW 4.5 mph7.2 kmh 30.16 in1021.3 mb 0.00 in0.0 mm 0.00 in/hr0.0 mm/hr 0.22 in5.6 mm
11:40 PM 50.7°F10.4°C 46.4°F8.0°C 85% 3.1 mph WSW5.0 kmh WSW 4.5 mph7.2 kmh 30.16 in1021.3 mb 0.00 in0.0 mm 0.00 in/hr0.0 mm/hr 0.22 in5.6 mm
11:45 PM 50.7°F10.4°C 46.4°F8.0°C 85% 3.8 mph WSW6.1 kmh WSW 4.5 mph7.2 kmh 30.16 in1021.3 mb 0.00 in0.0 mm 0.00 in/hr0.0 mm/hr 0.22 in5.6 mm
11:50 PM 50.7°F10.4°C 46.7°F8.2°C 86% 3.1 mph WSW5.0 kmh WSW 5.4 mph8.7 kmh 30.16 in1021.3 mb 0.00 in0.0 mm 0.00 in/hr0.0 mm/hr 0.22 in5.6 mm
11:55 PM 50.7°F10.4°C 46.7°F8.2°C 86% 3.1 mph WSW5.0 kmh WSW 6.0 mph9.7 kmh 30.16 in1021.3 mb 0.00 in0.0 mm 0.00 in/hr0.0 mm/hr 0.22 in5.6 mm